createdAt,value
2022-08-14T00:01:11.500Z,68.74
2022-08-14T00:03:40.530Z,68.76
2022-08-14T00:06:25.500Z,68.74
2022-08-14T00:08:45.340Z,68.67
2022-08-14T00:11:15.094Z,68.97
2022-08-14T00:13:52.857Z,69.06
2022-08-14T00:16:41.352Z,68.92
2022-08-14T00:19:19.819Z,68.97
2022-08-14T00:21:28.381Z,68.83
2022-08-14T00:23:57.102Z,68.73
2022-08-14T00:26:29.270Z,68.63
2022-08-14T00:28:59.813Z,68.80
2022-08-14T00:31:43.972Z,68.33
2022-08-14T00:34:36.895Z,68.79
2022-08-14T00:36:49.217Z,68.90
2022-08-14T00:39:09.867Z,68.87
2022-08-14T00:41:40.412Z,68.76
2022-08-14T00:44:12.735Z,68.80
2022-08-14T00:46:45.619Z,68.86
2022-08-14T00:49:17.784Z,68.46
2022-08-14T00:51:49.940Z,68.85
2022-08-14T00:54:22.389Z,68.78
2022-08-14T00:56:54.772Z,68.96
2022-08-14T00:59:29.799Z,69.07
2022-08-14T01:02:04.561Z,69.02
2022-08-14T01:04:51.859Z,68.85
2022-08-14T01:07:09.034Z,68.52
2022-08-14T01:09:40.196Z,68.77
2022-08-14T01:12:11.827Z,69.04
2022-08-14T01:14:42.353Z,69.09
2022-08-14T01:17:13.799Z,68.80
2022-08-14T01:20:02.722Z,68.78
2022-08-14T01:22:36.643Z,68.88
2022-08-14T01:25:08.224Z,68.90
2022-08-14T01:27:53.820Z,68.90
2022-08-14T01:30:13.497Z,68.99
2022-08-14T01:32:51.283Z,69.02
2022-08-14T01:36:04.436Z,68.88
2022-08-14T01:37:56.757Z,68.86
2022-08-14T01:40:37.027Z,68.77
2022-08-14T01:42:59.468Z,68.66
2022-08-14T01:45:31.530Z,68.41
2022-08-14T01:48:03.621Z,68.34
2022-08-14T01:50:35.928Z,68.26
2022-08-14T01:53:08.089Z,68.34
2022-08-14T01:55:40.526Z,68.59
2022-08-14T01:58:20.143Z,68.51
2022-08-14T02:00:50.698Z,68.83
2022-08-14T02:03:23.363Z,68.78
2022-08-14T02:05:55.546Z,69.05
2022-08-14T02:08:35.660Z,68.88
2022-08-14T02:11:21.055Z,68.91
2022-08-14T02:14:07.510Z,69.04
2022-08-14T02:16:39.282Z,68.99
2022-08-14T02:19:13.944Z,69.05
2022-08-14T02:21:50.445Z,68.96
2022-08-14T02:24:40.129Z,69.02
2022-08-14T02:28:19.193Z,69.16
2022-08-14T02:29:56.146Z,69.15
2022-08-14T02:32:01.999Z,68.78
2022-08-14T02:34:36.321Z,68.69
2022-08-14T02:37:10.809Z,68.88
2022-08-14T02:39:44.342Z,69.11
2022-08-14T02:42:23.612Z,69.34
2022-08-14T02:44:53.871Z,69.37
2022-08-14T02:47:27.956Z,69.14
2022-08-14T02:49:59.831Z,69.56
2022-08-14T02:52:57.290Z,69.45
2022-08-14T02:55:05.641Z,69.59
2022-08-14T02:57:39.704Z,69.78
2022-08-14T03:00:12.844Z,69.63
2022-08-14T03:02:56.317Z,69.65
2022-08-14T03:05:17.705Z,69.48
2022-08-14T03:07:48.217Z,69.44
2022-08-14T03:10:25.692Z,69.35
2022-08-14T03:12:53.639Z,69.12
2022-08-14T03:15:24.514Z,69.44
2022-08-14T03:17:56.899Z,68.97
2022-08-14T03:20:30.699Z,69.59
2022-08-14T03:23:03.294Z,69.34
2022-08-14T03:25:37.647Z,69.76
2022-08-14T03:28:14.368Z,69.65
2022-08-14T03:30:42.349Z,69.79
2022-08-14T03:33:15.306Z,69.65
2022-08-14T03:36:00.341Z,69.71
2022-08-14T03:38:21.025Z,69.90
2022-08-14T03:40:53.173Z,69.77
2022-08-14T03:43:25.239Z,69.79
2022-08-14T03:45:57.297Z,69.95
2022-08-14T03:48:31.018Z,69.95
2022-08-14T03:51:01.549Z,69.90
2022-08-14T03:53:34.157Z,70.01
2022-08-14T03:56:08.056Z,69.96
2022-08-14T03:58:42.355Z,70.20
2022-08-14T04:01:15.667Z,70.08
2022-08-14T04:03:47.489Z,70.60
2022-08-14T04:06:21.191Z,70.58
2022-08-14T04:08:53.357Z,70.92
2022-08-14T04:11:25.586Z,71.11
2022-08-14T04:13:56.123Z,70.98
2022-08-14T04:16:31.696Z,71.06
2022-08-14T04:19:02.284Z,71.20
2022-08-14T04:21:39.957Z,70.71
2022-08-14T04:24:07.019Z,70.55
2022-08-14T04:26:42.836Z,70.50
2022-08-14T04:29:15.336Z,70.27
2022-08-14T04:32:59.322Z,70.58
2022-08-14T04:34:20.562Z,70.52
2022-08-14T04:37:07.889Z,70.56
2022-08-14T04:39:57.356Z,70.46
2022-08-14T04:42:46.801Z,69.85
2022-08-14T04:45:18.142Z,69.87
2022-08-14T04:48:06.300Z,69.39
2022-08-14T04:50:44.697Z,69.49
2022-08-14T04:53:16.521Z,69.49
2022-08-14T04:55:51.516Z,69.79
2022-08-14T04:58:32.150Z,69.60
2022-08-14T05:00:59.763Z,69.71
2022-08-14T05:03:33.422Z,68.50
2022-08-14T05:06:07.038Z,68.13
2022-08-14T05:08:57.264Z,67.85
2022-08-14T05:11:15.366Z,67.91
2022-08-14T05:14:33.142Z,66.53
2022-08-14T05:16:18.640Z,63.31
2022-08-14T05:19:18.145Z,60.54
2022-08-14T05:21:56.892Z,59.10
2022-08-14T05:23:54.708Z,57.96
2022-08-14T05:26:26.048Z,57.28
2022-08-14T05:28:56.527Z,55.41
2022-08-14T05:31:39.506Z,53.61
2022-08-14T05:33:59.078Z,51.04
2022-08-14T05:36:30.115Z,49.57
2022-08-14T05:39:01.115Z,48.65
2022-08-14T05:41:53.364Z,48.42
2022-08-14T05:44:06.710Z,45.94
2022-08-14T05:46:37.147Z,47.96
2022-08-14T05:49:08.341Z,44.29
2022-08-14T05:51:41.082Z,42.57
2022-08-14T05:54:20.649Z,41.55
2022-08-14T05:56:45.099Z,41.99
2022-08-14T05:59:16.761Z,40.54
2022-08-14T06:01:47.353Z,44.77
2022-08-14T06:04:19.488Z,43.91
2022-08-14T06:06:50.001Z,44.66
2022-08-14T06:09:20.505Z,43.78
2022-08-14T06:11:50.955Z,42.37
2022-08-14T06:14:23.823Z,43.22
2022-08-14T06:16:55.719Z,41.84
2022-08-14T06:19:26.299Z,40.81
2022-08-14T06:21:59.043Z,41.77
2022-08-14T06:24:30.641Z,44.27
2022-08-14T06:27:03.914Z,47.20
2022-08-14T06:29:35.422Z,49.41
2022-08-14T06:32:36.497Z,44.32
2022-08-14T06:35:04.521Z,46.58
2022-08-14T06:37:11.616Z,44.91
2022-08-14T06:39:42.038Z,46.24
2022-08-14T06:42:31.277Z,52.70
2022-08-14T06:44:46.264Z,54.83
2022-08-14T06:47:21.504Z,57.76
2022-08-14T06:49:57.743Z,59.94
2022-08-14T06:52:26.189Z,60.00
2022-08-14T06:54:59.518Z,60.29
2022-08-14T06:57:42.172Z,59.78
2022-08-14T07:00:26.508Z,59.82
2022-08-14T07:03:09.301Z,60.29
2022-08-14T07:05:58.224Z,59.12
2022-08-14T07:08:29.720Z,59.68
2022-08-14T07:11:04.468Z,60.37
2022-08-14T07:13:36.137Z,59.59
2022-08-14T07:16:07.001Z,59.70
2022-08-14T07:18:40.689Z,58.72
2022-08-14T07:21:11.262Z,58.69
2022-08-14T07:23:44.225Z,57.56
2022-08-14T07:26:14.164Z,58.31
2022-08-14T07:28:45.876Z,58.59
2022-08-14T07:31:16.529Z,59.21
2022-08-14T07:33:50.135Z,56.77
2022-08-14T07:36:26.957Z,56.60
2022-08-14T07:38:54.931Z,56.62
2022-08-14T07:41:33.539Z,55.70
2022-08-14T07:44:28.574Z,54.81
2022-08-14T07:46:34.819Z,54.69
2022-08-14T07:49:06.796Z,53.94
2022-08-14T07:51:39.547Z,53.79
2022-08-14T07:54:11.770Z,53.40
2022-08-14T07:56:47.993Z,54.29
2022-08-14T07:59:16.813Z,53.56
2022-08-14T08:01:51.675Z,54.11
2022-08-14T08:04:27.849Z,53.33
2022-08-14T08:06:58.522Z,54.60
2022-08-14T08:09:32.985Z,53.17
2022-08-14T08:12:09.458Z,54.27
2022-08-14T08:14:56.506Z,52.80
2022-08-14T08:17:15.952Z,52.88
2022-08-14T08:19:48.755Z,52.61
2022-08-14T08:22:21.939Z,52.87
2022-08-14T08:24:52.869Z,52.55
2022-08-14T08:27:26.028Z,53.37
2022-08-14T08:30:10.301Z,53.26
2022-08-14T08:32:43.429Z,53.27
2022-08-14T08:35:22.406Z,53.33
2022-08-14T08:38:01.635Z,53.26
2022-08-14T08:40:31.339Z,52.90
2022-08-14T08:43:03.330Z,53.03
2022-08-14T08:45:35.800Z,52.40
2022-08-14T08:48:18.168Z,52.65
2022-08-14T08:53:11.772Z,52.28
2022-08-14T08:55:45.215Z,52.41
2022-08-14T08:58:25.301Z,51.49
2022-08-14T09:00:55.219Z,51.03
2022-08-14T09:03:28.975Z,51.98
2022-08-14T09:06:59.582Z,51.23
2022-08-14T09:08:38.804Z,50.73
2022-08-14T09:11:19.110Z,51.13
2022-08-14T09:13:48.113Z,50.85
2022-08-14T09:16:25.925Z,50.88
2022-08-14T09:18:57.057Z,50.64
2022-08-14T09:21:31.342Z,50.57
2022-08-14T09:24:29.537Z,50.26
2022-08-14T09:26:34.693Z,50.89
2022-08-14T09:29:06.836Z,50.20
2022-08-14T09:31:43.188Z,49.58
2022-08-14T09:34:58.390Z,50.03
2022-08-14T09:37:26.622Z,50.09
2022-08-14T09:40:10.781Z,50.03
2022-08-14T09:42:55.571Z,50.10
2022-08-14T09:45:39.964Z,49.43
2022-08-14T09:48:30.211Z,48.33
2022-08-14T09:50:56.728Z,48.63
2022-08-14T09:54:18.470Z,48.56
2022-08-14T09:56:24.365Z,47.51
2022-08-14T09:58:50.627Z,48.17
2022-08-14T10:01:24.968Z,48.61
2022-08-14T10:03:59.700Z,48.51
2022-08-14T10:06:33.123Z,47.35
2022-08-14T10:09:06.585Z,47.02
2022-08-14T10:11:43.346Z,46.84
2022-08-14T10:14:34.775Z,46.01
2022-08-14T10:16:54.817Z,45.17
2022-08-14T10:19:29.019Z,45.10
2022-08-14T10:23:15.124Z,45.09
2022-08-14T10:24:45.760Z,44.83
2022-08-14T10:27:27.014Z,43.60
2022-08-14T10:30:04.386Z,44.14
2022-08-14T10:32:42.053Z,43.56
2022-08-14T10:35:13.766Z,42.85
2022-08-14T10:37:48.234Z,42.91
2022-08-14T10:40:37.696Z,42.53
2022-08-14T10:43:04.889Z,42.39
2022-08-14T10:45:42.173Z,43.09
2022-08-14T10:48:24.343Z,43.18
2022-08-14T10:50:52.802Z,42.96
2022-08-14T10:53:37.155Z,42.07
2022-08-14T10:56:21.848Z,41.99
2022-08-14T10:58:47.945Z,41.48
2022-08-14T11:01:22.474Z,42.01
2022-08-14T11:03:56.903Z,42.03
2022-08-14T11:06:25.514Z,42.55
2022-08-14T11:08:58.478Z,41.86
2022-08-14T11:11:35.758Z,41.74
2022-08-14T11:14:01.486Z,42.45
2022-08-14T11:16:36.026Z,42.47
2022-08-14T11:19:10.750Z,42.45
2022-08-14T11:21:45.864Z,42.53
2022-08-14T11:24:53.971Z,42.24
2022-08-14T11:26:52.754Z,42.71
2022-08-14T11:29:26.868Z,43.89
2022-08-14T11:32:00.321Z,42.96
2022-08-14T11:34:32.455Z,42.37
2022-08-14T11:37:23.654Z,42.57
2022-08-14T11:39:47.103Z,42.61
2022-08-14T11:42:57.912Z,42.90
2022-08-14T11:45:04.311Z,42.63
2022-08-14T11:47:43.924Z,42.30
2022-08-14T11:50:33.567Z,41.99
2022-08-14T11:52:57.302Z,41.73
2022-08-14T11:55:33.721Z,41.27
2022-08-14T11:58:09.446Z,41.72
2022-08-14T12:00:58.789Z,41.20
2022-08-14T12:03:52.064Z,40.45
2022-08-14T12:06:29.310Z,40.30
2022-08-14T12:08:55.406Z,39.98
2022-08-14T12:11:26.493Z,40.00
2022-08-14T12:13:58.684Z,40.40
2022-08-14T12:16:31.270Z,40.85
2022-08-14T12:19:01.831Z,40.29
2022-08-14T12:21:33.912Z,40.86
2022-08-14T12:24:08.809Z,40.27
2022-08-14T12:26:41.370Z,40.33
2022-08-14T12:29:14.391Z,39.28
2022-08-14T12:31:47.101Z,39.26
2022-08-14T12:34:20.481Z,39.54
2022-08-14T12:36:50.454Z,38.93
2022-08-14T12:39:24.469Z,39.16
2022-08-14T12:41:58.876Z,39.70
2022-08-14T12:44:32.149Z,39.91
2022-08-14T12:47:13.515Z,39.38
2022-08-14T12:49:53.550Z,39.95
2022-08-14T12:52:43.034Z,39.70
2022-08-14T12:55:10.421Z,40.49
2022-08-14T12:57:43.530Z,40.65
2022-08-14T13:00:23.154Z,40.49
2022-08-14T13:02:55.896Z,39.41
2022-08-14T13:05:31.276Z,40.09
2022-08-14T13:08:04.819Z,40.44
2022-08-14T13:10:51.480Z,39.88
2022-08-14T13:13:15.082Z,40.33
2022-08-14T13:15:48.457Z,39.45
2022-08-14T13:18:22.945Z,39.96
2022-08-14T13:21:00.959Z,40.24
2022-08-14T13:23:37.540Z,40.45
2022-08-14T13:26:08.967Z,40.25
2022-08-14T13:29:02.353Z,39.58
2022-08-14T13:31:17.366Z,40.04
2022-08-14T13:33:47.983Z,39.21
2022-08-14T13:36:24.447Z,38.87
2022-08-14T13:38:52.141Z,38.40
2022-08-14T13:41:31.932Z,38.56
2022-08-14T13:43:59.761Z,38.81
2022-08-14T13:46:29.204Z,37.67
2022-08-14T13:49:00.884Z,38.12
2022-08-14T13:51:35.518Z,38.76
2022-08-14T13:54:10.498Z,38.69
2022-08-14T13:56:42.291Z,38.83
2022-08-14T13:59:20.471Z,38.22
2022-08-14T14:01:51.708Z,37.94
2022-08-14T14:04:23.332Z,37.06
2022-08-14T14:06:56.598Z,36.53
2022-08-14T14:09:32.509Z,37.53
2022-08-14T14:12:04.026Z,37.62
2022-08-14T14:14:50.806Z,37.50
2022-08-14T14:17:08.904Z,37.76
2022-08-14T14:19:46.219Z,37.85
2022-08-14T14:22:36.097Z,37.65
2022-08-14T14:24:50.383Z,36.66
2022-08-14T14:27:40.365Z,36.44
2022-08-14T14:29:58.492Z,36.62
2022-08-14T14:32:33.402Z,35.42
2022-08-14T14:35:10.801Z,36.69
2022-08-14T14:37:43.506Z,35.76
2022-08-14T14:40:54.069Z,35.58
2022-08-14T14:42:53.206Z,36.54
2022-08-14T14:45:25.475Z,35.27
2022-08-14T14:47:59.112Z,35.30
2022-08-14T14:50:29.977Z,35.45
2022-08-14T14:53:12.817Z,35.66
2022-08-14T14:55:43.214Z,35.47
2022-08-14T14:58:08.871Z,35.62
2022-08-14T15:00:42.884Z,36.34
2022-08-14T15:03:13.772Z,35.64
2022-08-14T15:05:44.338Z,35.64
2022-08-14T15:08:17.124Z,35.56
2022-08-14T15:10:48.705Z,34.65
2022-08-14T15:13:21.557Z,35.19
2022-08-14T15:15:52.107Z,33.72
2022-08-14T15:18:37.045Z,33.63
2022-08-14T15:21:04.071Z,32.42
2022-08-14T15:23:44.060Z,32.49
2022-08-14T15:26:09.725Z,32.78
2022-08-14T15:28:42.158Z,32.58
2022-08-14T15:31:14.527Z,33.29
2022-08-14T15:34:44.143Z,33.08
2022-08-14T15:36:36.780Z,33.35
2022-08-14T15:39:09.120Z,33.51
2022-08-14T15:41:41.998Z,33.64
2022-08-14T15:44:25.173Z,35.21
2022-08-14T15:46:45.740Z,34.16
2022-08-14T15:49:19.724Z,35.53
2022-08-14T15:51:51.121Z,34.54
2022-08-14T15:54:24.032Z,34.38
2022-08-14T15:57:04.510Z,34.55
2022-08-14T15:59:54.079Z,34.34
2022-08-14T16:02:30.176Z,34.49
2022-08-14T16:05:00.234Z,33.93
2022-08-14T16:07:31.126Z,33.78
2022-08-14T16:10:27.590Z,33.89
2022-08-14T16:12:45.954Z,33.86
2022-08-14T16:15:06.214Z,33.81
2022-08-14T16:17:44.097Z,33.98
2022-08-14T16:20:42.595Z,33.56
2022-08-14T16:22:58.520Z,33.77
2022-08-14T16:25:35.393Z,33.87
2022-08-14T16:27:55.266Z,33.83
2022-08-14T16:30:27.980Z,33.33
2022-08-14T16:33:01.970Z,33.19
2022-08-14T16:35:42.448Z,32.98
2022-08-14T16:38:19.058Z,32.55
2022-08-14T16:40:43.727Z,33.47
2022-08-14T16:43:15.322Z,33.90
2022-08-14T16:45:53.794Z,34.39
2022-08-14T16:48:55.141Z,34.53
2022-08-14T16:50:56.607Z,34.84
2022-08-14T16:53:27.100Z,35.23
2022-08-14T16:56:23.424Z,35.22
2022-08-14T16:58:53.917Z,35.02
2022-08-14T17:01:27.350Z,35.21
2022-08-14T17:04:08.622Z,36.24
2022-08-14T17:06:47.858Z,35.75
2022-08-14T17:09:43.596Z,35.82
2022-08-14T17:12:33.837Z,35.82
2022-08-14T17:14:54.871Z,35.63
2022-08-14T17:17:43.068Z,36.18
2022-08-14T17:20:53.946Z,36.12
2022-08-14T17:22:56.620Z,36.54
2022-08-14T17:25:34.479Z,36.72
2022-08-14T17:28:51.065Z,36.95
2022-08-14T17:30:58.905Z,36.75
2022-08-14T17:33:44.628Z,37.09
2022-08-14T17:36:24.253Z,36.88
2022-08-14T17:42:01.813Z,37.35
2022-08-14T17:44:33.422Z,37.21
2022-08-14T17:47:05.111Z,37.43
2022-08-14T17:49:40.578Z,37.66
2022-08-14T17:52:18.168Z,37.98
2022-08-14T17:55:00.710Z,38.21
2022-08-14T17:57:35.189Z,38.54
2022-08-14T18:00:05.296Z,39.01
2022-08-14T18:02:40.009Z,39.18
2022-08-14T18:05:15.337Z,39.44
2022-08-14T18:07:59.412Z,39.65
2022-08-14T18:10:55.005Z,39.81
2022-08-14T18:12:57.581Z,39.98
2022-08-14T18:15:37.261Z,40.17
2022-08-14T18:18:12.311Z,40.11
2022-08-14T18:21:41.815Z,41.45
2022-08-14T18:23:21.891Z,40.70
2022-08-14T18:25:54.597Z,40.83
2022-08-14T18:28:48.141Z,40.90
2022-08-14T18:31:18.495Z,41.00
2022-08-14T18:34:04.182Z,41.24
2022-08-14T18:36:52.746Z,42.15
2022-08-14T18:40:00.941Z,43.42
2022-08-14T18:42:24.447Z,44.31
2022-08-14T18:45:01.417Z,44.61
2022-08-14T18:48:03.561Z,44.85
2022-08-14T18:50:26.154Z,45.17
2022-08-14T18:52:50.365Z,45.37
2022-08-14T18:55:26.879Z,45.50
2022-08-14T18:58:07.716Z,45.79
2022-08-14T19:00:43.302Z,45.56
2022-08-14T19:03:38.394Z,45.69
2022-08-14T19:06:16.691Z,45.75
2022-08-14T19:08:52.998Z,46.01
2022-08-14T19:11:39.092Z,45.76
2022-08-14T19:14:14.044Z,45.84
2022-08-14T19:16:48.366Z,45.93
2022-08-14T19:19:19.158Z,46.32
2022-08-14T19:21:59.056Z,46.19
2022-08-14T19:24:44.267Z,46.52
2022-08-14T19:27:23.984Z,46.55
2022-08-14T19:30:19.792Z,46.90
2022-08-14T19:32:55.687Z,46.99
2022-08-14T19:35:50.216Z,47.31
2022-08-14T19:38:07.910Z,47.47
2022-08-14T19:40:42.719Z,47.80
2022-08-14T19:43:16.427Z,47.78
2022-08-14T19:45:52.603Z,48.28
2022-08-14T19:48:26.594Z,48.50
2022-08-14T19:51:02.359Z,48.92
2022-08-14T19:53:33.517Z,49.27
2022-08-14T19:56:05.767Z,49.56
2022-08-14T19:58:55.511Z,49.88
2022-08-14T20:01:17.441Z,49.98
2022-08-14T20:03:59.659Z,50.48
2022-08-14T20:06:28.261Z,51.20
2022-08-14T20:10:59.378Z,51.54
2022-08-14T20:12:02.063Z,51.72
2022-08-14T20:14:29.465Z,51.91
2022-08-14T20:17:05.516Z,51.97
2022-08-14T20:19:37.564Z,52.31
2022-08-14T20:22:36.749Z,52.40
2022-08-14T20:24:47.428Z,52.86
2022-08-14T20:27:34.884Z,52.75
2022-08-14T20:30:33.888Z,53.24
2022-08-14T20:33:02.572Z,53.38
2022-08-14T20:35:38.995Z,53.76
2022-08-14T20:38:31.159Z,53.82
2022-08-14T20:41:01.362Z,54.09
2022-08-14T20:43:53.927Z,53.94
2022-08-14T20:46:31.696Z,54.13
2022-08-14T20:49:12.021Z,54.31
2022-08-14T20:51:54.511Z,54.64
2022-08-14T20:54:34.184Z,54.85
2022-08-14T20:57:08.323Z,54.86
2022-08-14T20:59:44.569Z,54.98
2022-08-14T21:02:29.636Z,54.95
2022-08-14T21:05:02.894Z,55.22
2022-08-14T21:07:37.344Z,55.35
2022-08-14T21:10:35.426Z,55.29
2022-08-14T21:13:25.432Z,55.50
2022-08-14T21:15:23.528Z,55.41
2022-08-14T21:18:03.392Z,55.68
2022-08-14T21:20:36.998Z,55.62
2022-08-14T21:23:08.691Z,55.60
2022-08-14T21:25:40.112Z,55.71
2022-08-14T21:28:29.586Z,55.86
2022-08-14T21:30:52.521Z,55.89
2022-08-14T21:33:21.623Z,56.02
2022-08-14T21:35:55.487Z,56.14
2022-08-14T21:38:34.159Z,56.29
2022-08-14T21:40:59.712Z,56.37
2022-08-14T21:43:32.451Z,56.68
2022-08-14T21:46:03.372Z,56.92
2022-08-14T21:48:35.768Z,56.89
2022-08-14T21:51:53.631Z,57.21
2022-08-14T21:53:58.852Z,57.36
2022-08-14T21:56:16.799Z,57.25
2022-08-14T21:58:54.438Z,57.54
2022-08-14T22:01:21.582Z,57.63
2022-08-14T22:03:56.795Z,57.81
2022-08-14T22:06:28.960Z,58.02
2022-08-14T22:09:01.793Z,57.76
2022-08-14T22:11:37.599Z,58.38
2022-08-14T22:14:26.092Z,58.42
2022-08-14T22:17:03.459Z,58.92
2022-08-14T22:19:23.142Z,59.31
2022-08-14T22:21:55.740Z,59.19
2022-08-14T22:24:38.632Z,59.63
2022-08-14T22:27:01.390Z,59.69
2022-08-14T22:29:33.283Z,59.92
2022-08-14T22:32:08.262Z,60.11
2022-08-14T22:34:40.963Z,60.27
2022-08-14T22:37:14.551Z,60.69
2022-08-14T22:40:43.510Z,60.60
2022-08-14T22:42:36.638Z,60.95
2022-08-14T22:45:07.347Z,61.18
2022-08-14T22:47:40.859Z,61.24
2022-08-14T22:50:30.834Z,61.70
2022-08-14T22:52:49.314Z,61.88
2022-08-14T22:55:19.155Z,62.05
2022-08-14T22:57:50.922Z,62.26
2022-08-14T23:00:30.184Z,62.29
2022-08-14T23:03:01.507Z,62.59
2022-08-14T23:05:39.724Z,62.81
2022-08-14T23:08:59.171Z,63.19
2022-08-14T23:10:38.972Z,63.17
2022-08-14T23:13:11.295Z,63.06
2022-08-14T23:15:43.011Z,63.70
2022-08-14T23:18:14.827Z,63.70
2022-08-14T23:20:47.657Z,63.90
2022-08-14T23:23:22.315Z,64.04
2022-08-14T23:25:59.599Z,64.19
2022-08-14T23:28:33.977Z,64.24
2022-08-14T23:31:00.468Z,64.38
2022-08-14T23:33:33.442Z,64.53
2022-08-14T23:36:31.475Z,64.71
2022-08-14T23:38:38.702Z,64.74
2022-08-14T23:41:16.889Z,64.98
2022-08-14T23:43:52.397Z,65.12
2022-08-14T23:46:34.737Z,65.10
2022-08-14T23:48:57.829Z,64.98
2022-08-14T23:51:36.540Z,65.06
2022-08-14T23:54:48.207Z,65.23
2022-08-14T23:56:41.298Z,65.45
2022-08-14T23:59:15.569Z,65.53
